Weather at Portland Airport

Public forecast

Using degrees Celsius for public forecast. Weather courtesy of forecast.io.

Closest aviation weather report (METAR) to Portland Airport

Closest report is Mount Gambier Airport, 47.3 nm (87.5 km) NW. Retrieved 2021/06/12 19:34 UTC (0 seconds ago):

YMTG 121934Z AUTO 02007KT 4500 BR ////// 09/09 Q1017

Closest aviation forecast (TAF) to Portland Airport

Forecast is more than 12 hours old.

Closest forecast is Avalon Airport, 142.5 nm (263.9 km) E. Retrieved 2021/06/12 06:00 UTC (13 hours ago):

TAF YMAV 120527Z 1206/1306 27010KT 9999 SCT030 FM121000 28008KT 9999 BKN025 FM121500 30008KT 9999 FEW015 BKN025 FM130200 27007KT 9999 SCT020 BKN050